sensor_id;sensor_type;location;lat;lon;timestamp;temperature;humidity
35962;DHT22;22044;48.298;10.008;2024-03-02T00:01:53;4.40;99.90
35962;DHT22;22044;48.298;10.008;2024-03-02T00:04:40;4.50;99.90
35962;DHT22;22044;48.298;10.008;2024-03-02T00:07:26;4.50;99.90
35962;DHT22;22044;48.298;10.008;2024-03-02T00:10:16;4.50;99.90
35962;DHT22;22044;48.298;10.008;2024-03-02T00:13:04;4.50;99.90
35962;DHT22;22044;48.298;10.008;2024-03-02T00:15:52;4.50;99.90
35962;DHT22;22044;48.298;10.008;2024-03-02T00:18:38;4.50;99.90
35962;DHT22;22044;48.298;10.008;2024-03-02T00:21:26;4.50;99.90
35962;DHT22;22044;48.298;10.008;2024-03-02T00:24:20;4.50;99.90
35962;DHT22;22044;48.298;10.008;2024-03-02T00:27:07;4.50;99.90
35962;DHT22;22044;48.298;10.008;2024-03-02T00:30:44;4.60;99.90
35962;DHT22;22044;48.298;10.008;2024-03-02T00:34:01;4.50;99.90
35962;DHT22;22044;48.298;10.008;2024-03-02T00:36:51;4.50;99.90
35962;DHT22;22044;48.298;10.008;2024-03-02T00:39:37;4.50;99.90
35962;DHT22;22044;48.298;10.008;2024-03-02T00:42:23;4.50;99.90
35962;DHT22;22044;48.298;10.008;2024-03-02T00:45:09;4.50;99.90
35962;DHT22;22044;48.298;10.008;2024-03-02T00:47:55;4.50;99.90
35962;DHT22;22044;48.298;10.008;2024-03-02T00:50:40;4.50;99.90
35962;DHT22;22044;48.298;10.008;2024-03-02T00:53:27;4.40;99.90
35962;DHT22;22044;48.298;10.008;2024-03-02T00:56:39;4.40;99.90
35962;DHT22;22044;48.298;10.008;2024-03-02T00:59:26;4.30;99.90
35962;DHT22;22044;48.298;10.008;2024-03-02T01:02:12;4.20;99.90
35962;DHT22;22044;48.298;10.008;2024-03-02T01:04:57;4.10;99.90
35962;DHT22;22044;48.298;10.008;2024-03-02T01:07:43;3.90;99.90
35962;DHT22;22044;48.298;10.008;2024-03-02T01:10:30;3.70;99.90
35962;DHT22;22044;48.298;10.008;2024-03-02T01:13:16;3.70;99.90
35962;DHT22;22044;48.298;10.008;2024-03-02T01:16:02;3.60;99.90
35962;DHT22;22044;48.298;10.008;2024-03-02T01:18:48;3.50;99.90
35962;DHT22;22044;48.298;10.008;2024-03-02T01:21:34;3.40;99.90
35962;DHT22;22044;48.298;10.008;2024-03-02T01:24:20;3.40;99.90
35962;DHT22;22044;48.298;10.008;2024-03-02T01:27:06;3.50;99.90
35962;DHT22;22044;48.298;10.008;2024-03-02T01:29:52;3.60;99.90
35962;DHT22;22044;48.298;10.008;2024-03-02T01:32:39;3.70;99.90
35962;DHT22;22044;48.298;10.008;2024-03-02T01:35:24;3.70;99.90
35962;DHT22;22044;48.298;10.008;2024-03-02T01:38:11;3.80;99.90
35962;DHT22;22044;48.298;10.008;2024-03-02T01:40:56;3.90;99.90
35962;DHT22;22044;48.298;10.008;2024-03-02T01:43:43;3.90;99.90
35962;DHT22;22044;48.298;10.008;2024-03-02T01:46:29;4.00;99.90
35962;DHT22;22044;48.298;10.008;2024-03-02T01:49:15;4.00;99.90
35962;DHT22;22044;48.298;10.008;2024-03-02T01:52:00;4.10;99.90
35962;DHT22;22044;48.298;10.008;2024-03-02T01:54:46;4.10;99.90
35962;DHT22;22044;48.298;10.008;2024-03-02T01:57:32;4.10;99.90
35962;DHT22;22044;48.298;10.008;2024-03-02T02:00:19;4.20;99.90
35962;DHT22;22044;48.298;10.008;2024-03-02T02:03:05;4.20;99.90
35962;DHT22;22044;48.298;10.008;2024-03-02T02:05:51;4.20;99.90
35962;DHT22;22044;48.298;10.008;2024-03-02T02:08:38;4.10;99.90
35962;DHT22;22044;48.298;10.008;2024-03-02T02:11:24;4.10;99.90
35962;DHT22;22044;48.298;10.008;2024-03-02T02:14:10;4.20;99.90
35962;DHT22;22044;48.298;10.008;2024-03-02T02:16:58;4.20;99.90
35962;DHT22;22044;48.298;10.008;2024-03-02T02:19:43;4.10;99.90
35962;DHT22;22044;48.298;10.008;2024-03-02T02:22:31;4.10;99.90
35962;DHT22;22044;48.298;10.008;2024-03-02T02:25:42;4.20;99.90
35962;DHT22;22044;48.298;10.008;2024-03-02T02:28:28;4.10;99.90
35962;DHT22;22044;48.298;10.008;2024-03-02T02:31:13;4.00;99.90
35962;DHT22;22044;48.298;10.008;2024-03-02T02:33:59;4.00;99.90
35962;DHT22;22044;48.298;10.008;2024-03-02T02:36:45;4.00;99.90
35962;DHT22;22044;48.298;10.008;2024-03-02T02:39:32;4.00;99.90
35962;DHT22;22044;48.298;10.008;2024-03-02T02:42:17;3.90;99.90
35962;DHT22;22044;48.298;10.008;2024-03-02T02:45:03;3.80;99.90
35962;DHT22;22044;48.298;10.008;2024-03-02T02:47:49;3.80;99.90
35962;DHT22;22044;48.298;10.008;2024-03-02T02:50:35;3.80;99.90
35962;DHT22;22044;48.298;10.008;2024-03-02T02:53:20;3.80;99.90
35962;DHT22;22044;48.298;10.008;2024-03-02T02:56:07;3.80;99.90
35962;DHT22;22044;48.298;10.008;2024-03-02T02:58:53;3.70;99.90
35962;DHT22;22044;48.298;10.008;2024-03-02T03:01:39;3.70;99.90
35962;DHT22;22044;48.298;10.008;2024-03-02T03:04:24;3.60;99.90
35962;DHT22;22044;48.298;10.008;2024-03-02T03:07:10;3.40;99.90
35962;DHT22;22044;48.298;10.008;2024-03-02T03:09:56;3.30;99.90
35962;DHT22;22044;48.298;10.008;2024-03-02T03:12:43;3.20;99.90
35962;DHT22;22044;48.298;10.008;2024-03-02T03:15:29;3.30;99.90
35962;DHT22;22044;48.298;10.008;2024-03-02T03:18:15;3.30;99.90
35962;DHT22;22044;48.298;10.008;2024-03-02T03:21:01;3.30;99.90
35962;DHT22;22044;48.298;10.008;2024-03-02T03:23:47;3.40;99.90
35962;DHT22;22044;48.298;10.008;2024-03-02T03:26:35;3.40;99.90
35962;DHT22;22044;48.298;10.008;2024-03-02T03:29:23;3.40;99.90
35962;DHT22;22044;48.298;10.008;2024-03-02T03:32:09;3.50;99.90
35962;DHT22;22044;48.298;10.008;2024-03-02T03:34:55;3.40;99.90
35962;DHT22;22044;48.298;10.008;2024-03-02T03:37:41;3.20;99.90
35962;DHT22;22044;48.298;10.008;2024-03-02T03:40:27;3.10;99.90
35962;DHT22;22044;48.298;10.008;2024-03-02T03:43:13;3.10;99.90
35962;DHT22;22044;48.298;10.008;2024-03-02T03:46:00;3.20;99.90
35962;DHT22;22044;48.298;10.008;2024-03-02T03:48:46;3.30;99.90
35962;DHT22;22044;48.298;10.008;2024-03-02T03:51:33;3.30;99.90
35962;DHT22;22044;48.298;10.008;2024-03-02T03:54:19;3.20;99.90
35962;DHT22;22044;48.298;10.008;2024-03-02T03:57:05;3.30;99.90
35962;DHT22;22044;48.298;10.008;2024-03-02T03:59:50;3.40;99.90
35962;DHT22;22044;48.298;10.008;2024-03-02T04:02:37;3.50;99.90
35962;DHT22;22044;48.298;10.008;2024-03-02T04:05:23;3.50;99.90
35962;DHT22;22044;48.298;10.008;2024-03-02T04:08:09;3.60;99.90
35962;DHT22;22044;48.298;10.008;2024-03-02T04:10:55;3.60;99.90
35962;DHT22;22044;48.298;10.008;2024-03-02T04:13:41;3.60;99.90
35962;DHT22;22044;48.298;10.008;2024-03-02T04:16:27;3.70;99.90
35962;DHT22;22044;48.298;10.008;2024-03-02T04:19:14;3.80;99.90
35962;DHT22;22044;48.298;10.008;2024-03-02T04:22:00;3.80;99.90
35962;DHT22;22044;48.298;10.008;2024-03-02T04:24:45;3.90;99.90
35962;DHT22;22044;48.298;10.008;2024-03-02T04:27:31;3.80;99.90
35962;DHT22;22044;48.298;10.008;2024-03-02T04:30:17;3.90;99.90
35962;DHT22;22044;48.298;10.008;2024-03-02T04:33:03;3.70;99.90
35962;DHT22;22044;48.298;10.008;2024-03-02T04:35:51;3.70;99.90
35962;DHT22;22044;48.298;10.008;2024-03-02T04:38:38;3.70;99.90
35962;DHT22;22044;48.298;10.008;2024-03-02T04:41:24;3.70;99.90
35962;DHT22;22044;48.298;10.008;2024-03-02T04:44:09;3.70;99.90
35962;DHT22;22044;48.298;10.008;2024-03-02T04:46:55;3.70;99.90
35962;DHT22;22044;48.298;10.008;2024-03-02T04:49:41;3.70;99.90
35962;DHT22;22044;48.298;10.008;2024-03-02T04:52:28;3.70;99.90
35962;DHT22;22044;48.298;10.008;2024-03-02T04:55:14;3.70;99.90
35962;DHT22;22044;48.298;10.008;2024-03-02T04:58:13;3.70;99.90
35962;DHT22;22044;48.298;10.008;2024-03-02T05:00:59;3.70;99.90
35962;DHT22;22044;48.298;10.008;2024-03-02T05:03:45;3.70;99.90
35962;DHT22;22044;48.298;10.008;2024-03-02T05:06:30;3.70;99.90
35962;DHT22;22044;48.298;10.008;2024-03-02T05:09:17;3.70;99.90
35962;DHT22;22044;48.298;10.008;2024-03-02T05:12:03;3.60;99.90
35962;DHT22;22044;48.298;10.008;2024-03-02T05:15:24;3.40;99.90
35962;DHT22;22044;48.298;10.008;2024-03-02T05:18:10;3.30;99.90
35962;DHT22;22044;48.298;10.008;2024-03-02T05:20:56;3.40;99.90
35962;DHT22;22044;48.298;10.008;2024-03-02T05:23:41;3.40;99.90
35962;DHT22;22044;48.298;10.008;2024-03-02T05:26:28;3.50;99.90
35962;DHT22;22044;48.298;10.008;2024-03-02T05:29:13;3.50;99.90
35962;DHT22;22044;48.298;10.008;2024-03-02T05:31:59;3.60;99.90
35962;DHT22;22044;48.298;10.008;2024-03-02T05:34:45;3.60;99.90
35962;DHT22;22044;48.298;10.008;2024-03-02T05:37:56;3.60;99.90
35962;DHT22;22044;48.298;10.008;2024-03-02T05:40:41;3.70;99.90
35962;DHT22;22044;48.298;10.008;2024-03-02T05:43:28;3.70;99.90
35962;DHT22;22044;48.298;10.008;2024-03-02T05:46:14;3.70;99.90
35962;DHT22;22044;48.298;10.008;2024-03-02T05:49:00;3.70;99.90
35962;DHT22;22044;48.298;10.008;2024-03-02T05:51:45;3.70;99.90
35962;DHT22;22044;48.298;10.008;2024-03-02T05:54:31;3.60;99.90
35962;DHT22;22044;48.298;10.008;2024-03-02T05:57:16;3.60;99.90
35962;DHT22;22044;48.298;10.008;2024-03-02T06:00:17;3.60;99.90
35962;DHT22;22044;48.298;10.008;2024-03-02T06:03:04;3.60;99.90
35962;DHT22;22044;48.298;10.008;2024-03-02T06:05:50;3.40;99.90
35962;DHT22;22044;48.298;10.008;2024-03-02T06:08:36;3.50;99.90
35962;DHT22;22044;48.298;10.008;2024-03-02T06:11:21;3.50;99.90
35962;DHT22;22044;48.298;10.008;2024-03-02T06:14:08;3.50;99.90
35962;DHT22;22044;48.298;10.008;2024-03-02T06:16:55;3.50;99.90
35962;DHT22;22044;48.298;10.008;2024-03-02T06:19:41;3.50;99.90
35962;DHT22;22044;48.298;10.008;2024-03-02T06:22:26;3.50;99.90
35962;DHT22;22044;48.298;10.008;2024-03-02T06:25:12;3.50;99.90
35962;DHT22;22044;48.298;10.008;2024-03-02T06:27:58;3.50;99.90
35962;DHT22;22044;48.298;10.008;2024-03-02T06:30:43;3.50;99.90
35962;DHT22;22044;48.298;10.008;2024-03-02T06:33:31;3.50;99.90
35962;DHT22;22044;48.298;10.008;2024-03-02T06:36:17;3.50;99.90
35962;DHT22;22044;48.298;10.008;2024-03-02T06:39:02;3.50;99.90
35962;DHT22;22044;48.298;10.008;2024-03-02T06:41:48;3.40;99.90
35962;DHT22;22044;48.298;10.008;2024-03-02T06:44:34;3.40;99.90
35962;DHT22;22044;48.298;10.008;2024-03-02T06:47:19;3.40;99.90
35962;DHT22;22044;48.298;10.008;2024-03-02T06:50:07;3.40;99.90
35962;DHT22;22044;48.298;10.008;2024-03-02T06:52:53;3.50;99.90
35962;DHT22;22044;48.298;10.008;2024-03-02T06:55:40;3.50;99.90
35962;DHT22;22044;48.298;10.008;2024-03-02T06:58:25;3.50;99.90
35962;DHT22;22044;48.298;10.008;2024-03-02T07:01:11;3.50;99.90
35962;DHT22;22044;48.298;10.008;2024-03-02T07:03:57;3.50;99.90
35962;DHT22;22044;48.298;10.008;2024-03-02T07:06:44;3.50;99.90
35962;DHT22;22044;48.298;10.008;2024-03-02T07:09:30;3.50;99.90
35962;DHT22;22044;48.298;10.008;2024-03-02T07:12:15;3.50;99.90
35962;DHT22;22044;48.298;10.008;2024-03-02T07:15:01;3.50;99.90
35962;DHT22;22044;48.298;10.008;2024-03-02T07:18:04;3.60;99.90
35962;DHT22;22044;48.298;10.008;2024-03-02T07:20:49;3.60;99.90
35962;DHT22;22044;48.298;10.008;2024-03-02T07:23:37;3.70;99.90
35962;DHT22;22044;48.298;10.008;2024-03-02T07:26:22;3.70;99.90
35962;DHT22;22044;48.298;10.008;2024-03-02T07:29:08;3.70;99.90
35962;DHT22;22044;48.298;10.008;2024-03-02T07:31:54;3.80;99.90
35962;DHT22;22044;48.298;10.008;2024-03-02T07:34:40;3.80;99.90
35962;DHT22;22044;48.298;10.008;2024-03-02T07:37:25;3.80;99.90
35962;DHT22;22044;48.298;10.008;2024-03-02T07:40:13;3.80;99.90
35962;DHT22;22044;48.298;10.008;2024-03-02T07:42:59;3.80;99.90
35962;DHT22;22044;48.298;10.008;2024-03-02T07:45:46;3.70;99.90
35962;DHT22;22044;48.298;10.008;2024-03-02T07:48:32;3.70;99.90
35962;DHT22;22044;48.298;10.008;2024-03-02T07:51:17;3.80;99.90
35962;DHT22;22044;48.298;10.008;2024-03-02T07:54:03;3.80;99.90
35962;DHT22;22044;48.298;10.008;2024-03-02T07:56:51;3.80;99.90
35962;DHT22;22044;48.298;10.008;2024-03-02T07:59:37;3.80;99.90
35962;DHT22;22044;48.298;10.008;2024-03-02T08:02:23;3.90;99.90
35962;DHT22;22044;48.298;10.008;2024-03-02T08:05:08;3.80;99.90
35962;DHT22;22044;48.298;10.008;2024-03-02T08:07:54;3.70;99.90
35962;DHT22;22044;48.298;10.008;2024-03-02T08:10:40;3.70;99.90
35962;DHT22;22044;48.298;10.008;2024-03-02T08:13:27;3.80;99.90
35962;DHT22;22044;48.298;10.008;2024-03-02T08:16:13;3.80;99.90
35962;DHT22;22044;48.298;10.008;2024-03-02T08:18:59;3.90;99.90
35962;DHT22;22044;48.298;10.008;2024-03-02T08:21:45;3.90;99.90
35962;DHT22;22044;48.298;10.008;2024-03-02T08:24:30;3.90;99.90
35962;DHT22;22044;48.298;10.008;2024-03-02T08:27:16;3.90;99.90
35962;DHT22;22044;48.298;10.008;2024-03-02T08:30:03;3.90;99.90
35962;DHT22;22044;48.298;10.008;2024-03-02T08:32:50;3.90;99.90
35962;DHT22;22044;48.298;10.008;2024-03-02T08:35:36;3.80;99.90
35962;DHT22;22044;48.298;10.008;2024-03-02T08:38:22;3.80;99.90
35962;DHT22;22044;48.298;10.008;2024-03-02T08:41:07;3.90;99.90
35962;DHT22;22044;48.298;10.008;2024-03-02T08:43:53;3.90;99.90
35962;DHT22;22044;48.298;10.008;2024-03-02T08:46:40;3.80;99.90
35962;DHT22;22044;48.298;10.008;2024-03-02T08:49:26;3.90;99.90
35962;DHT22;22044;48.298;10.008;2024-03-02T08:52:12;3.90;99.90
35962;DHT22;22044;48.298;10.008;2024-03-02T08:54:57;4.00;99.90
35962;DHT22;22044;48.298;10.008;2024-03-02T08:57:43;4.10;99.90
35962;DHT22;22044;48.298;10.008;2024-03-02T09:00:29;4.10;99.90
35962;DHT22;22044;48.298;10.008;2024-03-02T09:03:16;4.10;99.90
35962;DHT22;22044;48.298;10.008;2024-03-02T09:06:02;3.90;99.90
35962;DHT22;22044;48.298;10.008;2024-03-02T09:08:48;3.70;99.90
35962;DHT22;22044;48.298;10.008;2024-03-02T09:11:36;3.60;99.90
35962;DHT22;22044;48.298;10.008;2024-03-02T09:14:22;3.60;99.90
35962;DHT22;22044;48.298;10.008;2024-03-02T09:17:07;3.80;99.90
35962;DHT22;22044;48.298;10.008;2024-03-02T09:19:56;4.00;99.90
35962;DHT22;22044;48.298;10.008;2024-03-02T09:22:42;4.10;99.90
35962;DHT22;22044;48.298;10.008;2024-03-02T09:25:31;4.00;99.90
35962;DHT22;22044;48.298;10.008;2024-03-02T09:28:18;4.10;99.90
35962;DHT22;22044;48.298;10.008;2024-03-02T09:31:04;4.20;99.90
35962;DHT22;22044;48.298;10.008;2024-03-02T09:33:49;4.30;99.90
35962;DHT22;22044;48.298;10.008;2024-03-02T09:36:39;4.50;99.90
35962;DHT22;22044;48.298;10.008;2024-03-02T09:39:25;4.40;99.90
35962;DHT22;22044;48.298;10.008;2024-03-02T09:42:12;4.40;99.90
35962;DHT22;22044;48.298;10.008;2024-03-02T09:44:58;4.70;99.90
35962;DHT22;22044;48.298;10.008;2024-03-02T09:47:44;5.00;99.90
35962;DHT22;22044;48.298;10.008;2024-03-02T09:50:30;5.20;99.90
35962;DHT22;22044;48.298;10.008;2024-03-02T09:53:18;5.30;99.90
35962;DHT22;22044;48.298;10.008;2024-03-02T09:56:04;5.40;99.90
35962;DHT22;22044;48.298;10.008;2024-03-02T09:58:50;5.40;99.90
35962;DHT22;22044;48.298;10.008;2024-03-02T10:01:36;5.50;99.90
35962;DHT22;22044;48.298;10.008;2024-03-02T10:04:22;5.50;99.90
35962;DHT22;22044;48.298;10.008;2024-03-02T10:07:12;5.60;99.90
35962;DHT22;22044;48.298;10.008;2024-03-02T10:10:12;5.60;99.90
35962;DHT22;22044;48.298;10.008;2024-03-02T10:13:03;5.70;99.90
35962;DHT22;22044;48.298;10.008;2024-03-02T10:16:17;5.70;99.90
35962;DHT22;22044;48.298;10.008;2024-03-02T10:19:28;5.80;99.90
35962;DHT22;22044;48.298;10.008;2024-03-02T10:22:17;5.80;99.90
35962;DHT22;22044;48.298;10.008;2024-03-02T10:25:05;6.00;99.90
35962;DHT22;22044;48.298;10.008;2024-03-02T10:27:51;6.00;99.90
35962;DHT22;22044;48.298;10.008;2024-03-02T10:30:37;6.10;99.90
35962;DHT22;22044;48.298;10.008;2024-03-02T10:33:24;6.30;99.90
35962;DHT22;22044;48.298;10.008;2024-03-02T10:36:10;6.40;99.90
35962;DHT22;22044;48.298;10.008;2024-03-02T10:38:56;6.50;99.90
35962;DHT22;22044;48.298;10.008;2024-03-02T10:41:46;6.50;99.90
35962;DHT22;22044;48.298;10.008;2024-03-02T10:44:35;6.50;99.90
35962;DHT22;22044;48.298;10.008;2024-03-02T10:47:21;6.50;99.90
35962;DHT22;22044;48.298;10.008;2024-03-02T10:50:09;6.60;99.90
35962;DHT22;22044;48.298;10.008;2024-03-02T10:52:54;6.70;99.90
35962;DHT22;22044;48.298;10.008;2024-03-02T10:55:40;6.80;99.90
35962;DHT22;22044;48.298;10.008;2024-03-02T10:58:32;7.00;99.90
35962;DHT22;22044;48.298;10.008;2024-03-02T11:01:18;7.10;99.90
35962;DHT22;22044;48.298;10.008;2024-03-02T11:04:08;7.30;99.90
35962;DHT22;22044;48.298;10.008;2024-03-02T11:06:59;7.50;99.90
35962;DHT22;22044;48.298;10.008;2024-03-02T11:09:49;7.60;99.90
35962;DHT22;22044;48.298;10.008;2024-03-02T11:12:39;7.60;99.90
35962;DHT22;22044;48.298;10.008;2024-03-02T11:15:30;7.70;99.90
35962;DHT22;22044;48.298;10.008;2024-03-02T11:18:15;7.70;99.90
35962;DHT22;22044;48.298;10.008;2024-03-02T11:21:02;7.80;99.90
35962;DHT22;22044;48.298;10.008;2024-03-02T11:23:48;7.90;99.90
35962;DHT22;22044;48.298;10.008;2024-03-02T11:26:38;8.00;99.90
35962;DHT22;22044;48.298;10.008;2024-03-02T11:29:45;8.30;99.90
35962;DHT22;22044;48.298;10.008;2024-03-02T11:32:32;8.60;99.90
35962;DHT22;22044;48.298;10.008;2024-03-02T11:35:17;8.90;99.90
35962;DHT22;22044;48.298;10.008;2024-03-02T11:38:06;9.10;99.90
35962;DHT22;22044;48.298;10.008;2024-03-02T11:40:52;9.30;99.90
35962;DHT22;22044;48.298;10.008;2024-03-02T11:43:38;9.50;99.90
35962;DHT22;22044;48.298;10.008;2024-03-02T11:46:26;9.40;99.90
35962;DHT22;22044;48.298;10.008;2024-03-02T11:49:15;9.50;99.90
35962;DHT22;22044;48.298;10.008;2024-03-02T11:52:06;9.50;99.90
35962;DHT22;22044;48.298;10.008;2024-03-02T11:54:53;9.60;99.90
35962;DHT22;22044;48.298;10.008;2024-03-02T11:57:39;9.50;99.90
35962;DHT22;22044;48.298;10.008;2024-03-02T12:00:24;9.60;99.90
35962;DHT22;22044;48.298;10.008;2024-03-02T12:03:13;9.60;99.90
35962;DHT22;22044;48.298;10.008;2024-03-02T12:06:00;9.60;99.90
35962;DHT22;22044;48.298;10.008;2024-03-02T12:08:45;9.60;99.90
35962;DHT22;22044;48.298;10.008;2024-03-02T12:11:31;9.60;99.90
35962;DHT22;22044;48.298;10.008;2024-03-02T12:14:17;9.70;99.90
35962;DHT22;22044;48.298;10.008;2024-03-02T12:17:03;9.70;99.90
35962;DHT22;22044;48.298;10.008;2024-03-02T12:19:49;9.90;99.90
35962;DHT22;22044;48.298;10.008;2024-03-02T12:22:36;10.20;99.90
35962;DHT22;22044;48.298;10.008;2024-03-02T12:25:23;10.30;99.90
35962;DHT22;22044;48.298;10.008;2024-03-02T12:28:08;10.50;99.90
35962;DHT22;22044;48.298;10.008;2024-03-02T12:30:54;10.70;99.90
35962;DHT22;22044;48.298;10.008;2024-03-02T12:33:40;10.80;99.90
35962;DHT22;22044;48.298;10.008;2024-03-02T12:36:25;10.80;99.90
35962;DHT22;22044;48.298;10.008;2024-03-02T12:39:12;11.00;99.90
35962;DHT22;22044;48.298;10.008;2024-03-02T12:41:58;10.80;99.90
35962;DHT22;22044;48.298;10.008;2024-03-02T12:44:44;10.90;99.90
35962;DHT22;22044;48.298;10.008;2024-03-02T12:47:30;11.00;99.90
35962;DHT22;22044;48.298;10.008;2024-03-02T12:50:15;11.10;99.90
35962;DHT22;22044;48.298;10.008;2024-03-02T12:53:01;11.20;99.90
35962;DHT22;22044;48.298;10.008;2024-03-02T12:55:48;11.20;99.90
35962;DHT22;22044;48.298;10.008;2024-03-02T12:58:39;11.20;99.90
35962;DHT22;22044;48.298;10.008;2024-03-02T13:01:25;11.20;99.90
35962;DHT22;22044;48.298;10.008;2024-03-02T13:04:21;11.30;99.90
35962;DHT22;22044;48.298;10.008;2024-03-02T13:07:11;11.30;99.90
35962;DHT22;22044;48.298;10.008;2024-03-02T13:10:25;11.30;99.90
35962;DHT22;22044;48.298;10.008;2024-03-02T13:13:39;11.30;99.90
35962;DHT22;22044;48.298;10.008;2024-03-02T13:16:25;11.30;99.90
35962;DHT22;22044;48.298;10.008;2024-03-02T13:19:11;11.40;99.90
35962;DHT22;22044;48.298;10.008;2024-03-02T13:21:57;11.40;99.90
35962;DHT22;22044;48.298;10.008;2024-03-02T13:24:42;11.50;99.90
35962;DHT22;22044;48.298;10.008;2024-03-02T13:27:28;11.50;99.90
35962;DHT22;22044;48.298;10.008;2024-03-02T13:30:15;11.70;99.90
35962;DHT22;22044;48.298;10.008;2024-03-02T13:33:01;11.60;99.90
35962;DHT22;22044;48.298;10.008;2024-03-02T13:35:47;11.60;99.90
35962;DHT22;22044;48.298;10.008;2024-03-02T13:38:32;11.60;99.90
35962;DHT22;22044;48.298;10.008;2024-03-02T13:41:18;11.60;99.90
35962;DHT22;22044;48.298;10.008;2024-03-02T13:44:04;11.60;99.90
35962;DHT22;22044;48.298;10.008;2024-03-02T13:46:51;11.70;99.90
35962;DHT22;22044;48.298;10.008;2024-03-02T13:49:37;11.70;99.90
35962;DHT22;22044;48.298;10.008;2024-03-02T13:52:27;11.70;99.90
35962;DHT22;22044;48.298;10.008;2024-03-02T13:55:14;11.70;99.90
35962;DHT22;22044;48.298;10.008;2024-03-02T13:58:01;11.70;99.90
35962;DHT22;22044;48.298;10.008;2024-03-02T14:00:46;11.60;99.90
35962;DHT22;22044;48.298;10.008;2024-03-02T14:03:33;11.60;99.90
35962;DHT22;22044;48.298;10.008;2024-03-02T14:06:19;11.60;99.90
35962;DHT22;22044;48.298;10.008;2024-03-02T14:09:04;11.70;99.90
35962;DHT22;22044;48.298;10.008;2024-03-02T14:11:50;11.70;99.90
35962;DHT22;22044;48.298;10.008;2024-03-02T14:14:36;11.70;99.90
35962;DHT22;22044;48.298;10.008;2024-03-02T14:17:22;11.80;99.90
35962;DHT22;22044;48.298;10.008;2024-03-02T14:20:10;11.70;99.90
35962;DHT22;22044;48.298;10.008;2024-03-02T14:22:56;11.80;99.90
35962;DHT22;22044;48.298;10.008;2024-03-02T14:25:43;11.80;99.90
35962;DHT22;22044;48.298;10.008;2024-03-02T14:28:29;11.80;99.90
35962;DHT22;22044;48.298;10.008;2024-03-02T14:31:15;11.70;99.90
35962;DHT22;22044;48.298;10.008;2024-03-02T14:34:00;11.80;99.90
35962;DHT22;22044;48.298;10.008;2024-03-02T14:36:49;11.80;99.90
35962;DHT22;22044;48.298;10.008;2024-03-02T14:39:35;11.80;99.90
35962;DHT22;22044;48.298;10.008;2024-03-02T14:42:21;11.80;99.90
35962;DHT22;22044;48.298;10.008;2024-03-02T14:45:06;11.90;99.90
35962;DHT22;22044;48.298;10.008;2024-03-02T14:47:52;11.90;99.90
35962;DHT22;22044;48.298;10.008;2024-03-02T14:50:38;12.00;99.90
35962;DHT22;22044;48.298;10.008;2024-03-02T14:53:25;12.00;99.90
35962;DHT22;22044;48.298;10.008;2024-03-02T14:56:11;12.10;99.90
35962;DHT22;22044;48.298;10.008;2024-03-02T14:58:58;12.10;99.90
35962;DHT22;22044;48.298;10.008;2024-03-02T15:01:44;12.00;99.90
35962;DHT22;22044;48.298;10.008;2024-03-02T15:04:30;12.00;99.90
35962;DHT22;22044;48.298;10.008;2024-03-02T15:07:16;11.90;99.90
35962;DHT22;22044;48.298;10.008;2024-03-02T15:10:03;12.00;99.90
35962;DHT22;22044;48.298;10.008;2024-03-02T15:12:49;12.00;99.90
35962;DHT22;22044;48.298;10.008;2024-03-02T15:15:36;12.00;99.90
35962;DHT22;22044;48.298;10.008;2024-03-02T15:18:22;12.00;99.90
35962;DHT22;22044;48.298;10.008;2024-03-02T15:21:08;12.10;99.90
35962;DHT22;22044;48.298;10.008;2024-03-02T15:23:54;12.10;99.90
35962;DHT22;22044;48.298;10.008;2024-03-02T15:26:41;12.00;99.90
35962;DHT22;22044;48.298;10.008;2024-03-02T15:29:27;12.00;99.90
35962;DHT22;22044;48.298;10.008;2024-03-02T15:32:13;11.90;99.90
35962;DHT22;22044;48.298;10.008;2024-03-02T15:34:59;11.80;99.90
35962;DHT22;22044;48.298;10.008;2024-03-02T15:37:45;11.80;99.90
35962;DHT22;22044;48.298;10.008;2024-03-02T15:40:30;11.70;99.90
35962;DHT22;22044;48.298;10.008;2024-03-02T15:43:17;11.60;99.90
35962;DHT22;22044;48.298;10.008;2024-03-02T15:46:03;11.60;99.90
35962;DHT22;22044;48.298;10.008;2024-03-02T15:48:49;11.50;99.90
35962;DHT22;22044;48.298;10.008;2024-03-02T15:51:34;11.50;99.90
35962;DHT22;22044;48.298;10.008;2024-03-02T15:54:25;11.40;99.90
35962;DHT22;22044;48.298;10.008;2024-03-02T15:57:10;11.40;99.90
35962;DHT22;22044;48.298;10.008;2024-03-02T15:59:57;11.30;99.90
35962;DHT22;22044;48.298;10.008;2024-03-02T16:02:43;11.20;99.90
35962;DHT22;22044;48.298;10.008;2024-03-02T16:05:28;11.20;99.90
35962;DHT22;22044;48.298;10.008;2024-03-02T16:08:14;11.20;99.90
35962;DHT22;22044;48.298;10.008;2024-03-02T16:11:00;11.20;99.90
35962;DHT22;22044;48.298;10.008;2024-03-02T16:13:46;11.00;99.90
35962;DHT22;22044;48.298;10.008;2024-03-02T16:16:33;11.00;99.90
35962;DHT22;22044;48.298;10.008;2024-03-02T16:19:19;11.00;99.90
35962;DHT22;22044;48.298;10.008;2024-03-02T16:22:05;10.90;99.90
35962;DHT22;22044;48.298;10.008;2024-03-02T16:24:52;10.90;99.90
35962;DHT22;22044;48.298;10.008;2024-03-02T16:27:38;10.80;99.90
35962;DHT22;22044;48.298;10.008;2024-03-02T16:30:24;10.80;99.90
35962;DHT22;22044;48.298;10.008;2024-03-02T16:33:11;10.70;99.90
35962;DHT22;22044;48.298;10.008;2024-03-02T16:35:57;10.60;99.90
35962;DHT22;22044;48.298;10.008;2024-03-02T16:38:43;10.60;99.90
35962;DHT22;22044;48.298;10.008;2024-03-02T16:41:31;10.50;99.90
35962;DHT22;22044;48.298;10.008;2024-03-02T16:44:17;10.50;99.90
35962;DHT22;22044;48.298;10.008;2024-03-02T16:47:03;10.40;99.90
35962;DHT22;22044;48.298;10.008;2024-03-02T16:49:50;10.40;99.90
35962;DHT22;22044;48.298;10.008;2024-03-02T16:52:36;10.30;99.90
35962;DHT22;22044;48.298;10.008;2024-03-02T16:55:22;10.30;99.90
35962;DHT22;22044;48.298;10.008;2024-03-02T16:58:08;10.30;99.90
35962;DHT22;22044;48.298;10.008;2024-03-02T17:00:54;10.20;99.90
35962;DHT22;22044;48.298;10.008;2024-03-02T17:03:39;10.20;99.90
35962;DHT22;22044;48.298;10.008;2024-03-02T17:06:26;10.20;99.90
35962;DHT22;22044;48.298;10.008;2024-03-02T17:09:12;10.10;99.90
35962;DHT22;22044;48.298;10.008;2024-03-02T17:11:58;10.00;99.90
35962;DHT22;22044;48.298;10.008;2024-03-02T17:14:43;10.00;99.90
35962;DHT22;22044;48.298;10.008;2024-03-02T17:17:30;9.90;99.90
35962;DHT22;22044;48.298;10.008;2024-03-02T17:20:16;9.90;99.90
35962;DHT22;22044;48.298;10.008;2024-03-02T17:23:06;9.80;99.90
35962;DHT22;22044;48.298;10.008;2024-03-02T17:25:52;9.70;99.90
35962;DHT22;22044;48.298;10.008;2024-03-02T17:28:38;9.70;99.90
35962;DHT22;22044;48.298;10.008;2024-03-02T17:31:25;9.60;99.90
35962;DHT22;22044;48.298;10.008;2024-03-02T17:34:11;9.60;99.90